Alma, Michigan
Current Conditions -  °F | °C
As of 5:12 PM on Thursday 27 Nov 2014 (Local Time) from KAMN Reporting Station
Overcast Overcast  
Wind Chill: 15°   Ceiling: 3700
Heat Index: 26°   Visibility: 10mi
Dew Point: 15°   Wind: 13mph
Humidity: 65%   Direction: 300°WNW
Pressure: 30.26"   Gusts: 20mph
Location:  43.38°N, 84.66°W
Report Text: KAMN 272212Z AUTO 30011G17KT 10SM SCT026 OVC037 M03/M09 A3026 RMK AO2 T10351093
Loading
Personal Weather Stations






























Interactive Weather Map New forecast layout! Learn more

10-Day Weather Forecast

Advertisements
Track Severe Weather on mobile